createdAt,value
2022-08-11T00:01:16.643Z,100.00
2022-08-11T00:06:41.005Z,100.00
2022-08-11T00:12:04.949Z,100.00
2022-08-11T00:17:31.885Z,100.00
2022-08-11T00:23:03.140Z,100.00
2022-08-11T00:28:28.434Z,100.00
2022-08-11T00:33:53.375Z,100.00
2022-08-11T00:39:17.553Z,100.00
2022-08-11T00:44:51.569Z,100.00
2022-08-11T00:50:23.178Z,100.00
2022-08-11T00:56:09.541Z,100.00
2022-08-11T01:01:56.874Z,100.00
2022-08-11T01:08:02.448Z,100.00
2022-08-11T01:14:16.625Z,100.00
2022-08-11T01:20:44.889Z,100.00
2022-08-11T01:26:21.994Z,100.00
2022-08-11T01:32:23.269Z,100.00
2022-08-11T01:38:06.822Z,100.00
2022-08-11T01:44:15.706Z,100.00
2022-08-11T01:50:07.290Z,100.00
2022-08-11T01:55:41.341Z,100.00
2022-08-11T02:01:12.766Z,100.00
2022-08-11T02:06:58.373Z,100.00
2022-08-11T02:12:33.589Z,100.00
2022-08-11T02:18:07.016Z,100.00
2022-08-11T02:24:05.712Z,100.00
2022-08-11T02:29:31.215Z,100.00
2022-08-11T02:35:01.519Z,100.00
2022-08-11T02:40:37.415Z,100.00
2022-08-11T02:46:20.293Z,100.00
2022-08-11T02:51:58.254Z,100.00
2022-08-11T02:57:25.009Z,100.00
2022-08-11T03:02:56.629Z,100.00
2022-08-11T03:08:29.199Z,100.00
2022-08-11T03:14:18.717Z,100.00
2022-08-11T03:19:49.606Z,100.00
2022-08-11T03:25:19.129Z,100.00
2022-08-11T03:30:48.845Z,100.00
2022-08-11T03:36:21.492Z,100.00
2022-08-11T03:42:03.580Z,100.00
2022-08-11T03:47:41.358Z,100.00
2022-08-11T03:53:31.918Z,100.00
2022-08-11T03:59:33.398Z,100.00
2022-08-11T04:05:24.810Z,100.00
2022-08-11T04:11:08.607Z,100.00
2022-08-11T04:16:44.478Z,100.00
2022-08-11T04:22:52.850Z,100.00
2022-08-11T04:28:51.920Z,100.00
2022-08-11T04:34:37.694Z,100.00
2022-08-11T04:40:33.765Z,100.00
2022-08-11T04:46:38.684Z,100.00
2022-08-11T04:52:47.694Z,100.00
2022-08-11T04:58:36.062Z,100.00
2022-08-11T05:04:30.046Z,100.00
2022-08-11T05:10:16.405Z,100.00
2022-08-11T05:16:04.790Z,100.00
2022-08-11T05:21:45.817Z,100.00
2022-08-11T05:27:30.091Z,100.00
2022-08-11T05:33:16.408Z,100.00
2022-08-11T05:38:57.500Z,100.00
2022-08-11T05:44:39.903Z,100.00
2022-08-11T05:50:31.463Z,100.00
2022-08-11T05:56:14.127Z,100.00
2022-08-11T06:01:39.321Z,100.00
2022-08-11T06:07:06.319Z,100.00
2022-08-11T06:12:32.453Z,100.00
2022-08-11T06:17:58.535Z,100.00
2022-08-11T06:23:23.754Z,100.00
2022-08-11T06:28:49.348Z,100.00
2022-08-11T06:34:27.069Z,100.00
2022-08-11T06:40:03.100Z,100.00
2022-08-11T06:45:31.543Z,100.00
2022-08-11T06:51:13.310Z,100.00
2022-08-11T07:02:45.388Z,100.00
2022-08-11T07:08:51.791Z,100.00
2022-08-11T07:14:38.645Z,100.00
2022-08-11T07:20:21.558Z,100.00
2022-08-11T07:26:27.359Z,100.00
2022-08-11T07:31:53.919Z,100.00
2022-08-11T07:37:19.778Z,100.00
2022-08-11T07:42:46.649Z,100.00
2022-08-11T07:48:28.638Z,100.00
2022-08-11T07:53:58.575Z,100.00
2022-08-11T08:00:03.359Z,100.00
2022-08-11T08:05:56.658Z,100.00
2022-08-11T08:11:39.392Z,100.00
2022-08-11T08:17:21.786Z,100.00
2022-08-11T08:22:48.455Z,100.00
2022-08-11T08:28:14.612Z,100.00
2022-08-11T08:33:42.266Z,100.00
2022-08-11T08:39:05.600Z,100.00
2022-08-11T08:44:39.217Z,100.00
2022-08-11T08:50:08.418Z,100.00
2022-08-11T08:55:32.170Z,100.00
2022-08-11T09:00:56.228Z,100.00
2022-08-11T09:06:21.917Z,99.79
2022-08-11T09:11:53.422Z,100.00
2022-08-11T09:17:17.159Z,97.49
2022-08-11T09:28:46.500Z,94.28
2022-08-11T09:34:11.236Z,94.52
2022-08-11T09:39:56.803Z,94.95
2022-08-11T09:45:20.043Z,93.40
2022-08-11T09:50:43.486Z,94.81
2022-08-11T09:56:28.859Z,92.73
2022-08-11T10:01:56.171Z,87.75
2022-08-11T10:07:21.266Z,78.10
2022-08-11T10:12:51.597Z,88.36
2022-08-11T10:18:37.933Z,80.61
2022-08-11T10:24:19.618Z,72.00
2022-08-11T10:30:01.450Z,72.47
2022-08-11T10:35:26.395Z,70.54
2022-08-11T10:41:18.868Z,76.53
2022-08-11T10:47:00.994Z,71.13
2022-08-11T10:52:41.962Z,70.89
2022-08-11T10:58:24.754Z,71.76
2022-08-11T11:03:52.512Z,64.64
2022-08-11T11:09:18.545Z,62.13
2022-08-11T11:15:00.941Z,55.59
2022-08-11T11:20:37.140Z,59.08
2022-08-11T11:26:12.618Z,54.80
2022-08-11T11:31:49.303Z,54.11
2022-08-11T11:37:17.423Z,54.61
2022-08-11T11:42:45.734Z,51.61
2022-08-11T11:48:09.301Z,50.29
2022-08-11T11:53:34.243Z,49.48
2022-08-11T11:59:15.368Z,49.90
2022-08-11T12:04:39.242Z,47.39
2022-08-11T12:10:10.341Z,49.56
2022-08-11T12:16:33.612Z,47.82
2022-08-11T12:21:18.040Z,48.42
2022-08-11T12:27:15.951Z,47.50
2022-08-11T12:32:41.966Z,45.45
2022-08-11T12:38:10.907Z,44.68
2022-08-11T12:43:57.129Z,43.67
2022-08-11T12:49:44.789Z,45.29
2022-08-11T12:55:13.663Z,42.56
2022-08-11T13:00:56.578Z,45.35
2022-08-11T13:06:20.766Z,44.01
2022-08-11T13:12:01.700Z,43.72
2022-08-11T13:17:43.665Z,43.77
2022-08-11T13:23:07.485Z,41.71
2022-08-11T13:28:30.767Z,41.82
2022-08-11T13:33:55.522Z,42.24
2022-08-11T13:39:19.411Z,42.58
2022-08-11T13:44:43.819Z,41.33
2022-08-11T13:50:09.637Z,41.04
2022-08-11T13:55:51.459Z,39.77
2022-08-11T14:02:19.221Z,39.68
2022-08-11T14:07:01.653Z,39.08
2022-08-11T14:12:45.018Z,41.05
2022-08-11T14:18:11.296Z,41.93
2022-08-11T14:23:39.844Z,40.46
2022-08-11T14:29:06.569Z,39.96
2022-08-11T14:34:30.902Z,40.00
2022-08-11T14:40:02.842Z,41.48
2022-08-11T14:45:57.581Z,41.08
2022-08-11T14:51:23.985Z,43.61
2022-08-11T14:56:49.295Z,45.80
2022-08-11T15:02:30.580Z,45.84
2022-08-11T15:07:55.532Z,46.25
2022-08-11T15:13:21.204Z,45.46
2022-08-11T15:18:50.036Z,44.09
2022-08-11T15:24:24.070Z,44.10
2022-08-11T15:30:11.089Z,42.32
2022-08-11T15:36:02.758Z,43.94
2022-08-11T15:41:58.201Z,43.96
2022-08-11T15:47:27.318Z,43.06
2022-08-11T15:52:59.415Z,44.05
2022-08-11T15:58:40.911Z,42.59
2022-08-11T16:04:15.355Z,42.50
2022-08-11T16:09:47.456Z,44.06
2022-08-11T16:15:29.539Z,42.36
2022-08-11T16:20:55.735Z,43.97
2022-08-11T16:27:08.965Z,45.12
2022-08-11T16:32:29.579Z,45.27
2022-08-11T16:38:12.787Z,47.19
2022-08-11T16:44:13.462Z,48.40
2022-08-11T16:49:38.650Z,52.78
2022-08-11T16:55:03.851Z,55.99
2022-08-11T17:00:27.669Z,58.28
2022-08-11T17:06:11.284Z,61.99
2022-08-11T17:12:01.179Z,60.97
2022-08-11T17:17:28.055Z,62.50
2022-08-11T17:23:13.346Z,64.11
2022-08-11T17:29:01.121Z,66.30
2022-08-11T17:34:41.538Z,67.91
2022-08-11T17:40:08.810Z,68.47
2022-08-11T17:45:56.695Z,69.82
2022-08-11T17:51:36.683Z,74.93
2022-08-11T17:57:21.123Z,78.40
2022-08-11T18:03:07.239Z,80.72
2022-08-11T18:08:49.163Z,84.89
2022-08-11T18:14:31.877Z,83.90
2022-08-11T18:20:13.805Z,86.68
2022-08-11T18:25:58.724Z,88.15
2022-08-11T18:31:40.497Z,86.65
2022-08-11T18:37:29.139Z,87.61
2022-08-11T18:43:12.094Z,87.83
2022-08-11T18:48:54.665Z,89.69
2022-08-11T19:00:41.715Z,89.91
2022-08-11T19:06:39.853Z,91.36
2022-08-11T19:12:25.336Z,91.36
2022-08-11T19:18:06.197Z,91.82
2022-08-11T19:23:52.901Z,92.60
2022-08-11T19:30:07.956Z,94.23
2022-08-11T19:35:36.817Z,95.43
2022-08-11T19:41:17.915Z,96.02
2022-08-11T19:47:20.277Z,96.97
2022-08-11T19:53:01.527Z,98.55
2022-08-11T19:58:44.373Z,99.63
2022-08-11T20:04:26.378Z,100.00
2022-08-11T20:10:07.964Z,100.00
2022-08-11T20:15:48.616Z,100.00
2022-08-11T20:21:33.480Z,100.00
2022-08-11T20:27:18.941Z,100.00
2022-08-11T20:33:06.195Z,100.00
2022-08-11T20:44:56.203Z,100.00
2022-08-11T20:50:37.280Z,100.00
2022-08-11T20:56:19.823Z,100.00
2022-08-11T21:02:03.060Z,100.00
2022-08-11T21:07:55.629Z,100.00
2022-08-11T21:13:48.161Z,100.00
2022-08-11T21:20:00.245Z,100.00
2022-08-11T21:25:37.285Z,100.00
2022-08-11T21:31:21.875Z,100.00
2022-08-11T21:37:03.757Z,100.00
2022-08-11T21:42:45.275Z,100.00
2022-08-11T21:48:28.250Z,100.00
2022-08-11T21:54:09.336Z,100.00
2022-08-11T22:06:05.059Z,100.00
2022-08-11T22:11:47.862Z,100.00
2022-08-11T22:17:33.199Z,100.00
2022-08-11T22:23:16.169Z,100.00
2022-08-11T22:28:56.836Z,100.00
2022-08-11T22:34:45.004Z,100.00
2022-08-11T22:40:35.299Z,100.00
2022-08-11T22:46:16.480Z,100.00
2022-08-11T22:51:58.385Z,100.00
2022-08-11T22:57:40.857Z,100.00
2022-08-11T23:03:41.920Z,100.00
2022-08-11T23:09:23.372Z,100.00
2022-08-11T23:15:05.186Z,100.00
2022-08-11T23:20:56.270Z,100.00
2022-08-11T23:26:41.376Z,100.00
2022-08-11T23:32:24.585Z,100.00
2022-08-11T23:38:05.600Z,100.00
2022-08-11T23:43:46.274Z,100.00
2022-08-11T23:49:29.178Z,100.00
2022-08-11T23:55:09.794Z,100.00
